createdAt,value
2023-01-22T00:01:12.633Z,36.50
2023-01-22T00:06:05.247Z,42.53
2023-01-22T00:10:57.141Z,54.80
2023-01-22T00:15:49.040Z,32.88
2023-01-22T00:20:41.759Z,39.33
2023-01-22T00:25:33.919Z,35.17
2023-01-22T00:30:25.676Z,52.80
2023-01-22T00:35:17.469Z,33.90
2023-01-22T00:40:09.907Z,41.17
2023-01-22T00:45:01.800Z,39.88
2023-01-22T00:49:53.430Z,33.35
2023-01-22T00:54:45.606Z,41.80
2023-01-22T00:59:37.607Z,39.83
2023-01-22T01:04:29.301Z,34.90
2023-01-22T01:09:21.075Z,35.47
2023-01-22T01:14:12.880Z,35.17
2023-01-22T01:19:08.027Z,35.33
2023-01-22T01:24:00.801Z,33.88
2023-01-22T01:28:53.142Z,39.40
2023-01-22T01:33:46.028Z,34.20
2023-01-22T01:38:38.048Z,33.75
2023-01-22T01:43:30.336Z,40.13
2023-01-22T01:48:46.694Z,37.33
2023-01-22T01:53:41.571Z,34.20
2023-01-22T01:58:37.957Z,33.55
2023-01-22T02:03:30.836Z,33.42
2023-01-22T02:08:22.729Z,38.28
2023-01-22T02:13:21.177Z,33.22
2023-01-22T02:18:13.023Z,31.73
2023-01-22T02:23:05.720Z,30.25
2023-01-22T02:27:57.562Z,32.00
2023-01-22T02:32:50.580Z,29.83
2023-01-22T02:37:42.294Z,40.10
2023-01-22T02:42:34.048Z,34.35
2023-01-22T02:47:25.869Z,32.95
2023-01-22T02:52:18.191Z,32.17
2023-01-22T02:57:10.390Z,34.05
2023-01-22T03:02:02.360Z,38.75
2023-01-22T03:06:54.175Z,37.63
2023-01-22T03:11:47.399Z,28.38
2023-01-22T03:16:57.946Z,27.17
2023-01-22T03:21:49.568Z,29.30
2023-01-22T03:26:41.295Z,30.90
2023-01-22T03:31:33.137Z,34.97
2023-01-22T03:36:25.084Z,32.15
2023-01-22T03:41:18.547Z,32.70
2023-01-22T03:46:18.767Z,35.63
2023-01-22T03:51:14.883Z,38.55
2023-01-22T03:56:15.079Z,35.35
2023-01-22T04:01:12.659Z,30.15
2023-01-22T04:06:05.745Z,30.17
2023-01-22T04:10:57.701Z,31.83
2023-01-22T04:15:50.708Z,38.03
2023-01-22T04:20:42.900Z,32.08
2023-01-22T04:25:35.885Z,33.17
2023-01-22T04:30:28.698Z,33.38
2023-01-22T04:35:20.880Z,33.90
2023-01-22T04:40:12.891Z,34.30
2023-01-22T04:45:05.086Z,30.92
2023-01-22T04:49:56.735Z,32.13
2023-01-22T04:54:48.524Z,32.03
2023-01-22T04:59:40.193Z,32.53
2023-01-22T05:04:31.909Z,31.30
2023-01-22T05:09:24.745Z,30.42
2023-01-22T05:14:16.458Z,28.00
2023-01-22T05:19:09.058Z,32.55
2023-01-22T05:24:02.709Z,31.50
2023-01-22T05:28:54.415Z,30.00
2023-01-22T05:33:47.233Z,31.05
2023-01-22T05:38:39.088Z,29.30
2023-01-22T05:43:30.668Z,35.55
2023-01-22T05:48:22.230Z,30.75
2023-01-22T05:53:13.784Z,28.90
2023-01-22T05:58:06.383Z,32.95
2023-01-22T06:02:59.584Z,27.60
2023-01-22T06:07:51.323Z,32.03
2023-01-22T06:12:43.036Z,27.48
2023-01-22T06:17:34.677Z,33.55
2023-01-22T06:22:26.551Z,35.47
2023-01-22T06:27:18.777Z,27.80
2023-01-22T06:32:10.838Z,31.55
2023-01-22T06:37:02.763Z,32.40
2023-01-22T06:41:54.375Z,30.45
2023-01-22T06:46:47.249Z,27.40
2023-01-22T06:51:38.935Z,28.88
2023-01-22T06:56:30.726Z,27.90
2023-01-22T07:01:22.452Z,27.80
2023-01-22T07:06:15.860Z,26.75
2023-01-22T07:11:08.044Z,26.50
2023-01-22T07:16:04.087Z,29.52
2023-01-22T07:20:56.625Z,28.77
2023-01-22T07:25:48.391Z,25.38
2023-01-22T07:30:42.438Z,31.13
2023-01-22T07:35:34.140Z,26.65
2023-01-22T07:40:26.704Z,25.50
2023-01-22T07:45:19.469Z,29.00
2023-01-22T07:50:11.326Z,29.83
2023-01-22T07:55:03.006Z,26.67
2023-01-22T07:59:54.619Z,30.90
2023-01-22T08:04:46.268Z,29.98
2023-01-22T08:09:38.048Z,29.25
2023-01-22T08:14:29.709Z,26.65
2023-01-22T08:19:21.264Z,29.90
2023-01-22T08:24:14.057Z,24.67
2023-01-22T08:29:07.704Z,29.67
2023-01-22T08:34:00.278Z,29.10
2023-01-22T08:38:52.009Z,30.65
2023-01-22T08:43:43.669Z,22.30
2023-01-22T08:48:35.316Z,28.58
2023-01-22T08:53:26.958Z,28.30
2023-01-22T08:58:22.065Z,25.52
2023-01-22T09:03:14.105Z,21.20
2023-01-22T09:08:07.675Z,24.00
2023-01-22T09:13:00.349Z,27.50
2023-01-22T09:17:52.131Z,29.40
2023-01-22T09:22:47.930Z,23.10
2023-01-22T09:27:39.561Z,29.90
2023-01-22T09:32:31.396Z,29.10
2023-01-22T09:37:23.112Z,32.20
2023-01-22T09:42:21.131Z,27.30
2023-01-22T09:47:19.683Z,24.40
2023-01-22T09:52:11.877Z,25.30
2023-01-22T09:57:07.404Z,25.40
2023-01-22T10:02:12.455Z,24.52
2023-01-22T10:07:10.146Z,18.75
2023-01-22T10:12:12.111Z,17.77
2023-01-22T10:17:05.005Z,20.80
2023-01-22T10:22:01.482Z,20.27
2023-01-22T10:26:55.321Z,20.63
2023-01-22T10:31:51.087Z,26.27
2023-01-22T10:36:50.222Z,25.88
2023-01-22T10:41:43.238Z,25.98
2023-01-22T10:46:34.896Z,21.45
2023-01-22T10:51:37.346Z,20.50
2023-01-22T10:56:35.111Z,18.90
2023-01-22T11:01:32.133Z,26.27
2023-01-22T11:06:39.389Z,19.40
2023-01-22T11:11:42.002Z,21.13
2023-01-22T11:16:37.324Z,21.08
2023-01-22T11:21:47.032Z,21.92
2023-01-22T11:26:58.289Z,22.95
2023-01-22T11:32:24.664Z,23.27
2023-01-22T11:37:21.350Z,24.65
2023-01-22T11:42:56.216Z,23.67
2023-01-22T11:48:24.474Z,24.92
2023-01-22T11:53:27.552Z,21.50
2023-01-22T11:58:22.078Z,21.70
2023-01-22T12:03:50.040Z,22.50
2023-01-22T12:08:44.690Z,21.20
2023-01-22T12:14:03.504Z,20.77
2023-01-22T12:19:30.441Z,18.30
2023-01-22T12:24:34.409Z,20.50
2023-01-22T12:29:34.166Z,22.10
2023-01-22T12:35:10.336Z,21.63
2023-01-22T12:40:32.174Z,17.92
2023-01-22T12:45:52.774Z,20.30
2023-01-22T12:50:56.608Z,19.63
2023-01-22T12:56:02.469Z,14.35
2023-01-22T13:01:19.901Z,18.27
2023-01-22T13:06:30.062Z,21.88
2023-01-22T13:11:35.261Z,18.77
2023-01-22T13:16:32.666Z,20.83
2023-01-22T13:21:33.896Z,18.23
2023-01-22T13:26:28.297Z,18.77
2023-01-22T13:31:20.436Z,21.02
2023-01-22T13:36:15.024Z,21.30
2023-01-22T13:41:13.197Z,19.77
2023-01-22T13:46:05.888Z,20.83
2023-01-22T13:51:07.241Z,17.92
2023-01-22T13:56:00.258Z,22.05
2023-01-22T14:00:52.871Z,20.83
2023-01-22T14:05:44.572Z,18.40
2023-01-22T14:10:36.745Z,22.77
2023-01-22T14:15:29.258Z,19.48
2023-01-22T14:20:21.529Z,18.52
2023-01-22T14:25:13.485Z,20.85
2023-01-22T14:30:05.915Z,24.60
2023-01-22T14:34:57.881Z,21.58
2023-01-22T14:39:49.543Z,23.15
2023-01-22T14:44:41.209Z,20.23
2023-01-22T14:49:33.447Z,22.85
2023-01-22T14:54:25.296Z,17.98
2023-01-22T14:59:18.199Z,14.88
2023-01-22T15:04:11.053Z,17.35
2023-01-22T15:09:03.413Z,18.00
2023-01-22T15:13:55.676Z,16.55
2023-01-22T15:18:47.281Z,17.65
2023-01-22T15:23:38.902Z,17.48
2023-01-22T15:28:30.834Z,20.73
2023-01-22T15:33:24.330Z,18.90
2023-01-22T15:38:16.267Z,18.08
2023-01-22T15:43:08.252Z,18.73
2023-01-22T15:47:59.838Z,15.00
2023-01-22T15:52:57.760Z,18.38
2023-01-22T15:57:49.522Z,23.00
2023-01-22T16:07:49.919Z,17.58
2023-01-22T16:12:43.873Z,23.17
2023-01-22T16:17:35.553Z,24.45
2023-01-22T16:22:27.829Z,24.52
2023-01-22T16:27:19.615Z,23.75
2023-01-22T16:32:11.374Z,22.92
2023-01-22T16:37:03.157Z,22.83
2023-01-22T16:41:56.076Z,24.75
2023-01-22T16:46:51.362Z,17.90
2023-01-22T16:51:45.921Z,25.58
2023-01-22T16:56:37.750Z,20.42
2023-01-22T17:01:30.705Z,26.98
2023-01-22T17:06:30.218Z,25.15
2023-01-22T17:11:22.513Z,23.17
2023-01-22T17:16:15.503Z,21.63
2023-01-22T17:21:09.090Z,21.95
2023-01-22T17:26:05.507Z,23.20
2023-01-22T17:30:57.265Z,26.95
2023-01-22T17:35:49.029Z,18.30
2023-01-22T17:40:40.797Z,19.17
2023-01-22T17:45:32.461Z,20.52
2023-01-22T17:50:25.408Z,21.25
2023-01-22T17:55:17.764Z,18.77
2023-01-22T18:00:10.748Z,23.67
2023-01-22T18:05:02.921Z,23.83
2023-01-22T18:09:54.698Z,109.18
2023-01-22T18:14:46.668Z,57.25
2023-01-22T18:19:38.517Z,35.63
2023-01-22T18:24:32.493Z,23.45
2023-01-22T18:29:24.233Z,35.65
2023-01-22T18:34:16.201Z,52.53
2023-01-22T18:39:14.985Z,75.05
2023-01-22T18:44:08.243Z,29.58
2023-01-22T18:49:02.025Z,22.27
2023-01-22T18:53:54.155Z,25.98
2023-01-22T18:58:46.336Z,31.65
2023-01-22T19:03:39.977Z,26.92
2023-01-22T19:08:32.005Z,29.40
2023-01-22T19:13:23.746Z,32.88
2023-01-22T19:18:15.538Z,28.77
2023-01-22T19:23:07.621Z,24.65
2023-01-22T19:27:59.938Z,28.00
2023-01-22T19:32:55.666Z,28.63
2023-01-22T19:37:47.492Z,26.05
2023-01-22T19:42:42.013Z,22.20
2023-01-22T19:47:33.809Z,24.02
2023-01-22T19:52:26.728Z,21.30
2023-01-22T19:57:18.748Z,24.50
2023-01-22T20:02:14.218Z,20.70
2023-01-22T20:07:06.118Z,19.63
2023-01-22T20:11:58.690Z,23.80
2023-01-22T20:16:51.230Z,22.40
2023-01-22T20:21:43.229Z,24.77
2023-01-22T20:26:35.686Z,24.58
2023-01-22T20:31:27.587Z,25.98
2023-01-22T20:36:21.258Z,24.90
2023-01-22T20:41:13.910Z,21.92
2023-01-22T20:46:14.067Z,18.27
2023-01-22T20:51:13.120Z,25.70
2023-01-22T20:56:11.387Z,19.33
2023-01-22T21:01:15.765Z,25.98
2023-01-22T21:06:13.765Z,24.60
2023-01-22T21:11:09.037Z,23.70
2023-01-22T21:16:35.733Z,22.20
2023-01-22T21:21:29.266Z,21.70
2023-01-22T21:26:25.668Z,20.83
2023-01-22T21:31:19.602Z,18.98
2023-01-22T21:36:13.738Z,24.73
2023-01-22T21:41:12.528Z,21.55
2023-01-22T21:46:22.929Z,20.48
2023-01-22T21:51:16.621Z,30.63
2023-01-22T21:56:08.491Z,20.95
2023-01-22T22:01:07.800Z,24.77
2023-01-22T22:06:02.079Z,18.92
2023-01-22T22:10:54.857Z,16.00
2023-01-22T22:15:46.922Z,17.35
2023-01-22T22:20:38.746Z,18.95
2023-01-22T22:25:33.698Z,20.70
2023-01-22T22:30:26.181Z,22.95
2023-01-22T22:35:17.886Z,21.70
2023-01-22T22:40:11.187Z,19.27
2023-01-22T22:45:03.091Z,18.73
2023-01-22T22:49:55.112Z,19.40
2023-01-22T22:54:47.621Z,13.95
2023-01-22T22:59:39.356Z,17.58
2023-01-22T23:04:31.034Z,14.95
2023-01-22T23:09:22.891Z,16.67
2023-01-22T23:14:14.583Z,20.63
2023-01-22T23:19:09.655Z,19.35
2023-01-22T23:24:02.327Z,16.52
2023-01-22T23:28:57.951Z,15.48
2023-01-22T23:33:51.578Z,18.42
2023-01-22T23:38:43.921Z,17.77
2023-01-22T23:43:35.897Z,21.98
2023-01-22T23:48:28.181Z,16.70
2023-01-22T23:53:21.437Z,18.15
2023-01-22T23:58:13.344Z,13.93
